createdAt,value
2023-04-12T00:03:28.508Z,9.25
2023-04-12T00:13:31.325Z,9.80
2023-04-12T00:23:34.300Z,6.20
2023-04-12T00:33:36.453Z,6.85
2023-04-12T00:43:40.857Z,6.85
2023-04-12T00:53:42.992Z,6.35
2023-04-12T01:03:45.189Z,5.13
2023-04-12T01:14:19.884Z,6.50
2023-04-12T01:24:46.266Z,7.25
2023-04-12T01:34:48.525Z,8.85
2023-04-12T01:44:51.622Z,10.32
2023-04-12T01:54:57.421Z,12.40
2023-04-12T02:05:01.193Z,12.27
2023-04-12T02:15:03.985Z,14.50
2023-04-12T02:25:09.100Z,13.40
2023-04-12T02:35:18.468Z,12.68
2023-04-12T02:45:20.418Z,12.95
2023-04-12T02:55:25.941Z,13.27
2023-04-12T03:05:27.876Z,13.25
2023-04-12T03:15:29.844Z,11.82
2023-04-12T03:25:32.885Z,12.75
2023-04-12T03:35:34.834Z,13.32
2023-04-12T03:45:37.806Z,12.60
2023-04-12T03:55:39.799Z,12.75
2023-04-12T04:05:42.096Z,12.32
2023-04-12T04:15:44.070Z,13.52
2023-04-12T04:25:47.345Z,10.27
2023-04-12T04:35:49.394Z,9.70
2023-04-12T04:45:54.822Z,12.00
2023-04-12T04:56:01.643Z,10.43
2023-04-12T05:06:03.681Z,10.88
2023-04-12T05:16:09.358Z,11.98
2023-04-12T05:26:11.557Z,10.15
2023-04-12T05:36:15.878Z,11.77
2023-04-12T05:46:23.782Z,10.90
2023-04-12T05:56:25.923Z,15.30
2023-04-12T06:06:30.593Z,13.02
2023-04-12T06:16:32.672Z,14.68
2023-04-12T06:26:40.255Z,16.02
2023-04-12T06:36:43.802Z,14.07
2023-04-12T06:46:45.858Z,13.85
2023-04-12T06:56:48.148Z,14.63
2023-04-12T07:06:50.131Z,16.75
2023-04-12T07:16:52.045Z,16.70
2023-04-12T07:26:55.284Z,15.18
2023-04-12T07:36:57.335Z,15.70
2023-04-12T07:46:59.261Z,14.60
2023-04-12T07:57:05.715Z,13.25
2023-04-12T08:07:07.762Z,14.10
2023-04-12T08:17:09.786Z,14.27
2023-04-12T08:27:14.155Z,13.73
2023-04-12T08:37:17.226Z,15.55
2023-04-12T08:47:19.992Z,14.77
2023-04-12T08:57:22.310Z,15.07
2023-04-12T09:07:28.053Z,15.15
2023-04-12T09:17:30.202Z,14.27
2023-04-12T09:27:47.159Z,15.77
2023-04-12T09:37:58.404Z,16.00
2023-04-12T09:48:00.645Z,14.55
2023-04-12T09:58:05.163Z,13.43
2023-04-12T10:08:08.424Z,14.70
2023-04-12T10:18:14.581Z,13.75
2023-04-12T10:28:21.964Z,11.90
2023-04-12T10:38:27.028Z,12.93
2023-04-12T10:48:51.089Z,4.68
2023-04-12T10:58:53.072Z,13.30
2023-04-12T11:08:56.726Z,11.98
2023-04-12T11:19:01.064Z,13.05
2023-04-12T11:29:08.157Z,12.32
2023-04-12T11:39:10.678Z,12.45
2023-04-12T11:49:17.850Z,12.93
2023-04-12T11:59:19.907Z,12.38
2023-04-12T12:09:24.204Z,9.70
2023-04-12T12:19:56.205Z,12.82
2023-04-12T12:30:01.875Z,13.27
2023-04-12T12:40:11.223Z,13.07
2023-04-12T12:50:14.524Z,7.32
2023-04-12T13:00:17.309Z,14.10
2023-04-12T13:10:20.643Z,16.77
2023-04-12T13:20:23.293Z,14.52
2023-04-12T13:30:25.684Z,14.57
2023-04-12T13:40:27.742Z,15.18
2023-04-12T13:50:29.694Z,12.88
2023-04-12T14:00:31.751Z,11.88
2023-04-12T14:10:33.818Z,12.05
2023-04-12T14:20:35.796Z,14.30
2023-04-12T14:30:37.899Z,11.68
2023-04-12T14:40:39.992Z,12.52
2023-04-12T14:50:42.007Z,13.18
2023-04-12T15:00:45.388Z,15.35
2023-04-12T15:10:48.020Z,13.77
2023-04-12T15:20:50.035Z,14.50
2023-04-12T15:30:52.049Z,13.75
2023-04-12T15:40:56.302Z,14.40
2023-04-12T15:50:58.493Z,18.75
2023-04-12T16:01:02.729Z,14.60
2023-04-12T16:11:04.999Z,14.23
2023-04-12T16:21:07.128Z,15.25
2023-04-12T16:31:10.926Z,13.55
2023-04-12T16:41:13.203Z,13.60
2023-04-12T16:51:16.666Z,14.40
2023-04-12T17:01:22.588Z,11.75
2023-04-12T17:11:24.689Z,11.60
2023-04-12T17:21:27.667Z,11.75
2023-04-12T17:31:37.696Z,11.50
2023-04-12T17:41:41.444Z,11.88
2023-04-12T17:51:44.006Z,11.55
2023-04-12T18:01:48.759Z,10.25
2023-04-12T18:11:52.195Z,11.55
2023-04-12T18:21:54.686Z,11.10
2023-04-12T18:31:57.940Z,15.13
2023-04-12T18:42:03.960Z,14.23
2023-04-12T18:52:06.304Z,15.23
2023-04-12T19:02:09.738Z,20.63
2023-04-12T19:12:18.596Z,15.50
2023-04-12T19:22:30.409Z,16.90
2023-04-12T19:32:34.546Z,20.60
2023-04-12T19:42:37.548Z,22.15
2023-04-12T19:53:18.979Z,27.10
2023-04-12T20:03:22.563Z,21.98
2023-04-12T20:13:25.713Z,19.58
2023-04-12T20:23:30.096Z,22.38
2023-04-12T20:33:33.943Z,19.42
2023-04-12T20:43:48.387Z,17.77
2023-04-12T20:53:51.862Z,19.25
2023-04-12T21:03:54.562Z,19.33
2023-04-12T21:13:56.636Z,22.20
2023-04-12T21:23:58.557Z,25.58
2023-04-12T21:34:00.497Z,26.30
2023-04-12T21:44:02.364Z,35.45
2023-04-12T21:54:04.462Z,33.55
2023-04-12T22:04:06.965Z,40.38
2023-04-12T22:14:11.455Z,31.67
2023-04-12T22:24:13.623Z,32.45
2023-04-12T22:34:15.573Z,31.30
2023-04-12T22:44:18.605Z,35.45
2023-04-12T22:54:32.454Z,32.05
2023-04-12T23:04:34.407Z,33.67
2023-04-12T23:14:37.825Z,32.83
2023-04-12T23:24:39.724Z,33.40
2023-04-12T23:34:41.663Z,33.42
2023-04-12T23:44:43.539Z,34.45
2023-04-12T23:54:52.864Z,33.08
